TAF Text Data
IDs:
Format:
Raw Decoded Include METAR

Data at: 1034 UTC 07 Dec 2022

KAUG 071002Z 0710/0806 11006KT 6SM RA BKN005 OVC010
  FM080000 12004KT 1 1/2SM -RA BR BKN003 OVC007
  FM080400 35003KT 1SM -DZ BR OVC003